createdAt,value
2023-04-18T00:00:52.494Z,414.00
2023-04-18T00:01:52.711Z,400.00
2023-04-18T00:02:52.842Z,400.00
2023-04-18T00:03:52.849Z,400.00
2023-04-18T00:04:52.772Z,400.00
2023-04-18T00:05:52.737Z,400.00
2023-04-18T00:06:52.763Z,400.00
2023-04-18T00:07:52.858Z,414.00
2023-04-18T00:08:52.858Z,444.00
2023-04-18T00:09:52.933Z,477.00
2023-04-18T00:10:52.953Z,500.00
2023-04-18T00:11:53.017Z,500.00
2023-04-18T00:12:53.093Z,501.00
2023-04-18T00:13:53.108Z,502.00
2023-04-18T00:14:53.166Z,499.00
2023-04-18T00:15:53.215Z,501.00
2023-04-18T00:16:53.283Z,501.00
2023-04-18T00:17:53.409Z,503.00
2023-04-18T00:18:53.337Z,503.00
2023-04-18T00:19:53.392Z,500.00
2023-04-18T00:20:53.430Z,504.00
2023-04-18T00:21:53.490Z,500.00
2023-04-18T00:22:53.550Z,502.00
2023-04-18T00:23:53.606Z,500.00
2023-04-18T00:24:53.668Z,501.00
2023-04-18T00:25:53.874Z,502.00
2023-04-18T00:26:53.774Z,500.00
2023-04-18T00:27:53.851Z,505.00
2023-04-18T00:28:53.884Z,501.00
2023-04-18T00:29:53.941Z,503.00
2023-04-18T00:30:54.034Z,503.00
2023-04-18T00:31:54.049Z,504.00
2023-04-18T00:32:54.098Z,503.00
2023-04-18T00:33:54.138Z,500.00
2023-04-18T00:34:54.190Z,500.00
2023-04-18T00:35:54.236Z,501.00
2023-04-18T00:36:54.297Z,504.00
2023-04-18T00:37:54.346Z,506.00
2023-04-18T00:38:54.382Z,505.00
2023-04-18T00:39:54.445Z,502.00
2023-04-18T00:40:54.494Z,504.00
2023-04-18T00:41:54.597Z,500.00
2023-04-18T00:42:55.460Z,505.00
2023-04-18T00:43:54.599Z,502.00
2023-04-18T00:44:54.652Z,502.00
2023-04-18T00:45:54.682Z,500.00
2023-04-18T00:46:54.716Z,503.00
2023-04-18T00:47:54.801Z,505.00
2023-04-18T00:48:54.794Z,503.00
2023-04-18T00:49:54.841Z,500.00
2023-04-18T00:50:54.889Z,503.00
2023-04-18T00:51:54.952Z,504.00
2023-04-18T00:52:55.017Z,505.00
2023-04-18T00:53:55.062Z,501.00
2023-04-18T00:54:55.112Z,503.00
2023-04-18T00:55:55.135Z,510.00
2023-04-18T00:56:55.169Z,504.00
2023-04-18T00:57:55.212Z,505.00
2023-04-18T00:58:55.230Z,505.00
2023-04-18T00:59:55.300Z,504.00
2023-04-18T01:00:55.345Z,504.00
2023-04-18T01:01:55.544Z,504.00
2023-04-18T01:02:55.792Z,500.00
2023-04-18T01:03:55.564Z,507.00
2023-04-18T01:04:55.514Z,505.00
2023-04-18T01:05:55.561Z,502.00
2023-04-18T01:06:55.594Z,509.00
2023-04-18T01:07:55.626Z,510.00
2023-04-18T01:08:55.665Z,503.00
2023-04-18T01:09:55.721Z,502.00
2023-04-18T01:10:55.781Z,502.00
2023-04-18T01:11:56.105Z,500.00
2023-04-18T01:12:55.888Z,508.00
2023-04-18T01:13:55.972Z,503.00
2023-04-18T01:14:56.010Z,509.00
2023-04-18T01:15:56.109Z,507.00
2023-04-18T01:16:56.102Z,503.00
2023-04-18T01:17:56.444Z,507.00
2023-04-18T01:18:56.175Z,503.00
2023-04-18T01:19:56.202Z,503.00
2023-04-18T01:20:56.254Z,504.00
2023-04-18T01:21:56.296Z,509.00
2023-04-18T01:22:56.692Z,504.00
2023-04-18T01:23:56.404Z,505.00
2023-04-18T01:24:56.451Z,506.00
2023-04-18T01:25:56.511Z,506.00
2023-04-18T01:26:56.571Z,505.00
2023-04-18T01:27:56.622Z,503.00
2023-04-18T01:28:56.677Z,503.00
2023-04-18T01:29:56.753Z,505.00
2023-04-18T01:30:56.841Z,503.00
2023-04-18T01:31:56.847Z,507.00
2023-04-18T01:32:56.961Z,504.00
2023-04-18T01:33:56.950Z,504.00
2023-04-18T01:34:56.980Z,504.00
2023-04-18T01:35:57.031Z,509.00
2023-04-18T01:36:57.054Z,511.00
2023-04-18T01:37:57.089Z,505.00
2023-04-18T01:38:57.133Z,504.00
2023-04-18T01:39:57.169Z,504.00
2023-04-18T01:40:57.195Z,505.00
2023-04-18T01:41:57.228Z,504.00
2023-04-18T01:42:57.288Z,505.00
2023-04-18T01:43:57.341Z,510.00
2023-04-18T01:44:57.391Z,504.00
2023-04-18T01:45:57.496Z,501.00
2023-04-18T01:46:57.498Z,501.00
2023-04-18T01:47:57.560Z,502.00
2023-04-18T01:48:57.586Z,504.00
2023-04-18T01:49:57.654Z,506.00
2023-04-18T01:50:57.719Z,502.00
2023-04-18T01:51:58.248Z,507.00
2023-04-18T01:52:57.812Z,511.00
2023-04-18T01:53:57.878Z,504.00
2023-04-18T01:54:57.944Z,501.00
2023-04-18T01:55:58.014Z,507.00
2023-04-18T01:56:58.069Z,506.00
2023-04-18T01:57:58.141Z,501.00
2023-04-18T01:58:58.197Z,504.00
2023-04-18T01:59:58.261Z,502.00
2023-04-18T02:00:58.340Z,508.00
2023-04-18T02:01:58.519Z,505.00
2023-04-18T02:02:58.570Z,502.00
2023-04-18T02:03:58.992Z,504.00
2023-04-18T02:04:58.576Z,508.00
2023-04-18T02:05:58.647Z,506.00
2023-04-18T02:06:58.718Z,500.00
2023-04-18T02:07:58.769Z,505.00
2023-04-18T02:08:58.831Z,503.00
2023-04-18T02:09:58.896Z,508.00
2023-04-18T02:10:58.962Z,505.00
2023-04-18T02:11:59.021Z,507.00
2023-04-18T02:12:59.086Z,503.00
2023-04-18T02:13:59.145Z,505.00
2023-04-18T02:14:59.206Z,506.00
2023-04-18T02:15:59.300Z,508.00
2023-04-18T02:16:59.324Z,510.00
2023-04-18T02:17:59.479Z,508.00
2023-04-18T02:18:59.444Z,510.00
2023-04-18T02:19:59.502Z,510.00
2023-04-18T02:20:59.571Z,501.00
2023-04-18T02:21:59.622Z,503.00
2023-04-18T02:22:59.688Z,507.00
2023-04-18T02:23:59.746Z,504.00
2023-04-18T02:24:59.814Z,504.00
2023-04-18T02:25:59.882Z,502.00
2023-04-18T02:26:59.953Z,508.00
2023-04-18T02:28:00.045Z,500.00
2023-04-18T02:29:00.062Z,507.00
2023-04-18T02:30:00.173Z,503.00
2023-04-18T02:31:00.186Z,505.00
2023-04-18T02:32:00.300Z,503.00
2023-04-18T02:33:00.343Z,500.00
2023-04-18T02:34:00.368Z,508.00
2023-04-18T02:35:00.409Z,504.00
2023-04-18T02:36:00.453Z,505.00
2023-04-18T02:37:00.576Z,508.00
2023-04-18T02:38:00.593Z,507.00
2023-04-18T02:39:00.736Z,507.00
2023-04-18T02:40:00.692Z,507.00
2023-04-18T02:41:00.737Z,504.00
2023-04-18T02:42:00.792Z,510.00
2023-04-18T02:43:00.831Z,504.00
2023-04-18T02:44:01.004Z,507.00
2023-04-18T02:45:00.936Z,506.00
2023-04-18T02:46:01.011Z,508.00
2023-04-18T02:47:01.024Z,506.00
2023-04-18T02:48:01.068Z,511.00
2023-04-18T02:49:01.135Z,504.00
2023-04-18T02:50:01.178Z,512.00
2023-04-18T02:51:01.205Z,511.00
2023-04-18T02:52:01.268Z,507.00
2023-04-18T02:53:01.300Z,507.00
2023-04-18T02:54:01.345Z,509.00
2023-04-18T02:55:01.418Z,510.00
2023-04-18T02:56:01.481Z,509.00
2023-04-18T02:57:01.550Z,507.00
2023-04-18T02:58:01.608Z,510.00
2023-04-18T02:59:01.676Z,505.00
2023-04-18T03:00:01.729Z,512.00
2023-04-18T03:01:01.821Z,509.00
2023-04-18T03:02:01.907Z,510.00
2023-04-18T03:03:02.070Z,503.00
2023-04-18T03:04:01.998Z,508.00
2023-04-18T03:05:02.176Z,504.00
2023-04-18T03:06:02.171Z,508.00
2023-04-18T03:07:02.200Z,504.00
2023-04-18T03:08:02.281Z,506.00
2023-04-18T03:09:02.331Z,502.00
2023-04-18T03:10:02.406Z,504.00
2023-04-18T03:11:02.422Z,508.00
2023-04-18T03:12:02.469Z,507.00
2023-04-18T03:13:02.505Z,508.00
2023-04-18T03:14:02.547Z,505.00
2023-04-18T03:15:02.581Z,508.00
2023-04-18T03:16:02.701Z,505.00
2023-04-18T03:17:02.726Z,507.00
2023-04-18T03:18:03.039Z,503.00
2023-04-18T03:19:02.827Z,509.00
2023-04-18T03:20:02.898Z,508.00
2023-04-18T03:21:02.971Z,507.00
2023-04-18T03:22:03.067Z,502.00
2023-04-18T03:23:03.149Z,508.00
2023-04-18T03:24:03.196Z,503.00
2023-04-18T03:25:03.235Z,504.00
2023-04-18T03:28:40.735Z,500.00
2023-04-18T03:29:41.777Z,500.00
2023-04-18T03:30:41.844Z,500.00
2023-04-18T03:31:41.947Z,500.00
2023-04-18T03:32:42.029Z,500.00
2023-04-18T03:33:41.958Z,501.00
2023-04-18T03:34:41.986Z,502.00
2023-04-18T03:35:41.997Z,501.00
2023-04-18T03:36:42.033Z,507.00
2023-04-18T03:37:42.084Z,500.00
2023-04-18T03:38:42.092Z,508.00
2023-04-18T03:39:42.147Z,502.00
2023-04-18T03:40:42.147Z,508.00
2023-04-18T03:41:42.172Z,502.00
2023-04-18T03:42:42.197Z,508.00
2023-04-18T03:43:42.222Z,509.00
2023-04-18T03:44:42.243Z,503.00
2023-04-18T03:45:42.262Z,500.00
2023-04-18T03:46:42.342Z,504.00
2023-04-18T03:47:42.348Z,509.00
2023-04-18T03:48:42.352Z,505.00
2023-04-18T03:49:42.383Z,504.00
2023-04-18T03:50:42.368Z,507.00
2023-04-18T03:51:42.375Z,504.00
2023-04-18T03:52:42.390Z,500.00
2023-04-18T03:53:42.432Z,502.00
2023-04-18T03:54:42.443Z,503.00
2023-04-18T03:55:42.459Z,505.00
2023-04-18T03:56:42.459Z,507.00
2023-04-18T03:57:42.484Z,505.00
2023-04-18T03:58:42.498Z,500.00
2023-04-18T03:59:42.587Z,505.00
2023-04-18T04:00:42.540Z,503.00
2023-04-18T04:01:42.595Z,502.00
2023-04-18T04:02:42.735Z,502.00
2023-04-18T04:03:42.747Z,501.00
2023-04-18T04:04:42.660Z,500.00
2023-04-18T04:05:42.607Z,504.00
2023-04-18T04:06:42.627Z,503.00
2023-04-18T04:07:42.642Z,506.00
2023-04-18T04:08:42.667Z,505.00
2023-04-18T04:09:42.704Z,505.00
2023-04-18T04:10:42.680Z,510.00
2023-04-18T04:11:42.704Z,501.00
2023-04-18T04:12:43.199Z,505.00
2023-04-18T04:13:42.741Z,505.00
2023-04-18T04:14:42.785Z,501.00
2023-04-18T04:15:42.763Z,508.00
2023-04-18T04:16:42.824Z,508.00
2023-04-18T04:17:42.809Z,503.00
2023-04-18T04:18:42.799Z,510.00
2023-04-18T04:19:42.868Z,500.00
2023-04-18T04:20:42.838Z,505.00
2023-04-18T04:21:42.849Z,504.00
2023-04-18T04:22:42.848Z,508.00
2023-04-18T04:23:42.924Z,503.00
2023-04-18T04:24:42.908Z,506.00
2023-04-18T04:25:42.907Z,508.00
2023-04-18T04:26:42.896Z,501.00
2023-04-18T04:27:42.915Z,505.00
2023-04-18T04:28:42.922Z,505.00
2023-04-18T04:29:42.958Z,504.00
2023-04-18T04:30:42.964Z,501.00
2023-04-18T04:31:43.006Z,500.00
2023-04-18T04:32:43.061Z,503.00
2023-04-18T04:33:43.041Z,502.00
2023-04-18T04:34:43.076Z,505.00
2023-04-18T04:35:43.106Z,507.00
2023-04-18T04:36:43.143Z,506.00
2023-04-18T04:37:43.226Z,502.00
2023-04-18T04:38:43.186Z,502.00
2023-04-18T04:39:43.213Z,503.00
2023-04-18T04:40:43.250Z,504.00
2023-04-18T04:41:43.325Z,508.00
2023-04-18T04:42:43.272Z,502.00
2023-04-18T04:43:43.311Z,504.00
2023-04-18T04:44:43.355Z,506.00
2023-04-18T04:45:43.374Z,506.00
2023-04-18T04:46:43.328Z,506.00
2023-04-18T04:47:43.390Z,508.00
2023-04-18T04:48:43.393Z,506.00
2023-04-18T04:49:43.494Z,502.00
2023-04-18T04:50:43.476Z,508.00
2023-04-18T04:51:43.478Z,503.00
2023-04-18T04:52:43.500Z,506.00
2023-04-18T04:53:43.554Z,502.00
2023-04-18T04:54:43.665Z,503.00
2023-04-18T04:55:43.627Z,504.00
2023-04-18T04:56:43.697Z,507.00
2023-04-18T04:57:43.736Z,500.00
2023-04-18T04:58:43.753Z,505.00
2023-04-18T04:59:43.808Z,503.00
2023-04-18T05:00:43.841Z,507.00
2023-04-18T05:01:43.977Z,507.00
2023-04-18T05:02:44.081Z,509.00
2023-04-18T05:03:44.103Z,506.00
2023-04-18T05:04:43.954Z,504.00
2023-04-18T05:05:43.967Z,502.00
2023-04-18T05:06:43.974Z,503.00
2023-04-18T05:07:44.009Z,507.00
2023-04-18T05:08:44.031Z,506.00
2023-04-18T05:09:44.119Z,502.00
2023-04-18T05:10:44.137Z,501.00
2023-04-18T05:11:44.173Z,502.00
2023-04-18T05:12:44.200Z,500.00
2023-04-18T05:13:44.243Z,502.00
2023-04-18T05:14:44.276Z,500.00
2023-04-18T05:15:44.240Z,500.00
2023-04-18T05:16:44.335Z,501.00
2023-04-18T05:17:44.759Z,500.00
2023-04-18T05:18:44.307Z,505.00
2023-04-18T05:19:44.732Z,508.00
2023-04-18T05:20:44.332Z,512.00
2023-04-18T05:21:44.355Z,509.00
2023-04-18T05:22:44.418Z,508.00
2023-04-18T05:23:44.380Z,505.00
2023-04-18T05:24:44.752Z,506.00
2023-04-18T05:25:44.498Z,506.00
2023-04-18T05:26:44.439Z,503.00
2023-04-18T05:27:44.451Z,502.00
2023-04-18T05:28:44.466Z,500.00
2023-04-18T05:29:44.566Z,500.00
2023-04-18T05:30:44.739Z,501.00
2023-04-18T05:31:44.504Z,502.00
2023-04-18T05:32:44.564Z,502.00
2023-04-18T05:33:44.565Z,503.00
2023-04-18T05:34:44.544Z,504.00
2023-04-18T05:35:45.216Z,500.00
2023-04-18T05:36:44.567Z,504.00
2023-04-18T05:37:44.586Z,506.00
2023-04-18T05:38:44.714Z,505.00
2023-04-18T05:39:44.748Z,507.00
2023-04-18T05:40:44.693Z,508.00
2023-04-18T05:41:44.745Z,506.00
2023-04-18T05:42:44.771Z,501.00
2023-04-18T05:43:51.143Z,512.00
2023-04-18T05:44:44.816Z,513.00
2023-04-18T05:45:44.853Z,516.00
2023-04-18T05:46:44.880Z,522.00
2023-04-18T05:47:44.890Z,529.00
2023-04-18T05:48:45.246Z,546.00
2023-04-18T05:49:45.744Z,547.00
2023-04-18T05:50:44.858Z,550.00
2023-04-18T05:51:44.866Z,544.00
2023-04-18T05:52:44.884Z,548.00
2023-04-18T05:53:45.221Z,556.00
2023-04-18T05:54:44.892Z,567.00
2023-04-18T05:55:44.935Z,577.00
2023-04-18T05:56:44.924Z,582.00
2023-04-18T05:57:44.939Z,594.00
2023-04-18T05:58:45.237Z,613.00
2023-04-18T05:59:44.902Z,622.00
2023-04-18T06:00:45.229Z,640.00
2023-04-18T06:01:44.937Z,662.00
2023-04-18T06:02:45.007Z,684.00
2023-04-18T06:03:45.419Z,708.00
2023-04-18T06:04:45.171Z,724.00
2023-04-18T06:05:44.974Z,743.00
2023-04-18T06:06:44.901Z,757.00
2023-04-18T06:07:44.897Z,784.00
2023-04-18T06:08:45.294Z,808.00
2023-04-18T06:09:45.253Z,821.00
2023-04-18T06:10:44.890Z,848.00
2023-04-18T06:11:44.910Z,864.00
2023-04-18T06:12:44.877Z,884.00
2023-04-18T06:13:45.253Z,911.00
2023-04-18T06:14:45.332Z,914.00
2023-04-18T06:15:45.752Z,929.00
2023-04-18T06:16:45.467Z,940.00
2023-04-18T06:17:45.491Z,933.00
2023-04-18T06:18:45.299Z,935.00
2023-04-18T06:19:45.494Z,931.00
2023-04-18T06:20:45.838Z,929.00
2023-04-18T06:21:45.430Z,932.00
2023-04-18T06:22:45.799Z,924.00
2023-04-18T06:23:45.861Z,934.00
2023-04-18T06:24:45.894Z,932.00
2023-04-18T06:25:46.301Z,933.00
2023-04-18T06:26:45.492Z,934.00
2023-04-18T06:27:45.650Z,934.00
2023-04-18T06:28:46.036Z,917.00
2023-04-18T06:29:45.984Z,934.00
2023-04-18T06:30:46.108Z,903.00
2023-04-18T06:31:46.191Z,917.00
2023-04-18T06:32:46.140Z,917.00
2023-04-18T06:33:46.193Z,914.00
2023-04-18T06:34:46.578Z,918.00
2023-04-18T06:35:46.247Z,917.00
2023-04-18T06:36:46.030Z,900.00
2023-04-18T06:37:46.066Z,901.00
2023-04-18T06:38:46.238Z,901.00
2023-04-18T06:39:46.192Z,898.00
2023-04-18T06:40:46.236Z,911.00
2023-04-18T06:41:46.295Z,921.00
2023-04-18T06:42:46.349Z,912.00
2023-04-18T06:44:02.191Z,922.00
2023-04-18T06:44:46.409Z,924.00
2023-04-18T06:45:46.434Z,930.00
2023-04-18T06:46:46.806Z,939.00
2023-04-18T06:47:46.479Z,947.00
2023-04-18T06:48:46.418Z,961.00
2023-04-18T06:49:47.272Z,974.00
2023-04-18T06:50:46.434Z,980.00
2023-04-18T06:51:46.756Z,968.00
2023-04-18T06:52:46.750Z,961.00
2023-04-18T06:53:49.655Z,974.00
2023-04-18T06:54:46.913Z,974.00
2023-04-18T06:55:46.488Z,969.00
2023-04-18T06:56:46.555Z,950.00
2023-04-18T06:57:46.453Z,946.00
2023-04-18T06:58:46.753Z,939.00
2023-04-18T06:59:46.456Z,932.00
2023-04-18T07:00:46.817Z,928.00
2023-04-18T07:01:46.454Z,927.00
2023-04-18T07:02:46.695Z,913.00
2023-04-18T07:03:46.880Z,910.00
2023-04-18T07:04:46.492Z,892.00
2023-04-18T07:05:46.480Z,888.00
2023-04-18T07:06:46.437Z,878.00
2023-04-18T07:07:46.440Z,875.00
2023-04-18T07:08:46.753Z,876.00
2023-04-18T07:09:46.425Z,879.00
2023-04-18T07:10:46.418Z,875.00
2023-04-18T07:11:46.958Z,872.00
2023-04-18T07:12:46.413Z,856.00
2023-04-18T07:13:46.398Z,860.00
2023-04-18T07:14:46.400Z,860.00
2023-04-18T07:15:46.395Z,868.00
2023-04-18T07:16:46.428Z,862.00
2023-04-18T07:17:46.448Z,868.00
2023-04-18T07:18:46.468Z,874.00
2023-04-18T07:19:46.380Z,866.00
2023-04-18T07:20:46.376Z,879.00
2023-04-18T07:21:46.412Z,885.00
2023-04-18T07:22:46.362Z,884.00
2023-04-18T07:23:46.776Z,881.00
2023-04-18T07:24:46.359Z,875.00
2023-04-18T07:25:46.352Z,877.00
2023-04-18T07:26:46.360Z,870.00
2023-04-18T07:27:47.342Z,849.00
2023-04-18T07:28:46.789Z,856.00
2023-04-18T07:29:46.374Z,843.00
2023-04-18T07:30:46.386Z,840.00
2023-04-18T07:31:46.349Z,825.00
2023-04-18T07:32:46.374Z,830.00
2023-04-18T07:33:47.924Z,835.00
2023-04-18T07:34:46.451Z,831.00
2023-04-18T07:35:46.485Z,837.00
2023-04-18T07:36:46.533Z,847.00
2023-04-18T07:37:46.563Z,855.00
2023-04-18T07:38:46.592Z,843.00
2023-04-18T07:39:47.435Z,828.00
2023-04-18T07:40:46.762Z,840.00
2023-04-18T07:41:46.789Z,839.00
2023-04-18T07:42:46.846Z,853.00
2023-04-18T07:43:46.910Z,832.00
2023-04-18T07:44:47.274Z,833.00
2023-04-18T07:45:46.989Z,833.00
2023-04-18T07:46:47.187Z,827.00
2023-04-18T07:47:47.135Z,828.00
2023-04-18T07:48:47.269Z,824.00
2023-04-18T07:49:47.246Z,830.00
2023-04-18T07:50:47.768Z,830.00
2023-04-18T07:51:47.394Z,796.00
2023-04-18T07:52:47.423Z,791.00
2023-04-18T07:53:47.546Z,787.00
2023-04-18T07:54:48.767Z,733.00
2023-04-18T07:55:47.874Z,739.00
2023-04-18T07:56:47.641Z,740.00
2023-04-18T07:57:47.673Z,793.00
2023-04-18T07:58:47.753Z,744.00
2023-04-18T07:59:47.745Z,657.00
2023-04-18T08:00:47.840Z,643.00
2023-04-18T08:01:47.771Z,646.00
2023-04-18T08:02:47.909Z,594.00
2023-04-18T08:03:47.969Z,595.00
2023-04-18T08:04:47.955Z,581.00
2023-04-18T08:05:48.274Z,570.00
2023-04-18T08:06:47.825Z,552.00
2023-04-18T08:07:47.874Z,543.00
2023-04-18T08:08:48.290Z,523.00
2023-04-18T08:09:48.147Z,514.00
2023-04-18T08:10:47.889Z,514.00
2023-04-18T08:11:47.918Z,511.00
2023-04-18T08:12:47.959Z,500.00
2023-04-18T08:13:48.280Z,500.00
2023-04-18T08:14:47.979Z,504.00
2023-04-18T08:15:48.344Z,500.00
2023-04-18T08:16:48.205Z,513.00
2023-04-18T08:17:48.091Z,506.00
2023-04-18T08:18:48.068Z,500.00
2023-04-18T08:19:48.281Z,506.00
2023-04-18T08:20:48.137Z,501.00
2023-04-18T08:21:48.139Z,509.00
2023-04-18T08:23:05.261Z,500.00
2023-04-18T08:23:48.162Z,500.00
2023-04-18T08:25:01.424Z,501.00
2023-04-18T08:25:49.209Z,500.00
2023-04-18T08:26:48.166Z,500.00
2023-04-18T08:27:48.608Z,501.00
2023-04-18T08:28:48.196Z,501.00
2023-04-18T08:29:48.330Z,489.00
2023-04-18T08:30:48.193Z,504.00
2023-04-18T08:31:48.268Z,533.00
2023-04-18T08:32:48.173Z,552.00
2023-04-18T08:33:48.173Z,583.00
2023-04-18T08:34:48.294Z,581.00
2023-04-18T08:35:48.172Z,594.00
2023-04-18T08:36:48.162Z,597.00
2023-04-18T08:37:48.166Z,606.00
2023-04-18T08:38:48.164Z,613.00
2023-04-18T08:39:48.287Z,619.00
2023-04-18T08:40:48.151Z,623.00
2023-04-18T08:41:48.176Z,630.00
2023-04-18T08:42:48.146Z,629.00
2023-04-18T08:43:48.310Z,645.00
2023-04-18T08:44:48.317Z,661.00
2023-04-18T08:45:48.201Z,678.00
2023-04-18T08:46:48.143Z,674.00
2023-04-18T08:47:48.229Z,666.00
2023-04-18T08:48:48.138Z,655.00
2023-04-18T08:49:48.393Z,658.00
2023-04-18T08:50:48.137Z,675.00
2023-04-18T08:51:48.148Z,708.00
2023-04-18T08:52:48.136Z,750.00
2023-04-18T08:53:48.332Z,751.00
2023-04-18T08:54:48.154Z,744.00
2023-04-18T08:55:48.136Z,739.00
2023-04-18T08:56:48.173Z,733.00
2023-04-18T08:57:48.169Z,740.00
2023-04-18T08:58:48.326Z,732.00
2023-04-18T08:59:50.853Z,709.00
2023-04-18T09:00:48.144Z,742.00
2023-04-18T09:01:48.194Z,769.00
2023-04-18T09:02:48.451Z,929.00
2023-04-18T09:03:48.333Z,1078.00
2023-04-18T09:04:48.134Z,1146.00
2023-04-18T09:05:48.096Z,1161.00
2023-04-18T09:06:48.090Z,1200.00
2023-04-18T09:07:48.136Z,1147.00
2023-04-18T09:08:48.303Z,1159.00
2023-04-18T09:09:48.127Z,1058.00
2023-04-18T09:10:48.062Z,952.00
2023-04-18T09:11:48.049Z,950.00
2023-04-18T09:12:48.326Z,959.00
2023-04-18T09:13:48.071Z,900.00
2023-04-18T09:14:48.036Z,883.00
2023-04-18T09:15:48.027Z,900.00
2023-04-18T09:16:48.047Z,885.00
2023-04-18T09:17:48.350Z,847.00
2023-04-18T09:18:48.124Z,884.00
2023-04-18T09:19:48.002Z,884.00
2023-04-18T09:20:47.985Z,898.00
2023-04-18T09:21:48.309Z,906.00
2023-04-18T09:22:47.969Z,943.00
2023-04-18T09:23:47.966Z,952.00
2023-04-18T09:24:47.951Z,875.00
2023-04-18T09:25:48.334Z,872.00
2023-04-18T09:26:48.302Z,850.00
2023-04-18T09:27:48.398Z,814.00
2023-04-18T09:28:47.944Z,833.00
2023-04-18T09:29:47.920Z,876.00
2023-04-18T09:30:47.936Z,884.00
2023-04-18T09:31:48.344Z,850.00
2023-04-18T09:32:48.342Z,795.00
2023-04-18T09:33:47.864Z,771.00
2023-04-18T09:34:47.865Z,742.00
2023-04-18T09:35:51.057Z,662.00
2023-04-18T09:36:48.352Z,612.00
2023-04-18T09:37:47.887Z,530.00
2023-04-18T09:38:47.852Z,517.00
2023-04-18T09:39:47.854Z,493.00
2023-04-18T09:40:48.317Z,471.00
2023-04-18T09:41:47.865Z,502.00
2023-04-18T09:42:48.855Z,504.00
2023-04-18T09:43:47.863Z,500.00
2023-04-18T09:44:47.861Z,506.00
2023-04-18T09:45:48.404Z,500.00
2023-04-18T09:46:47.941Z,514.00
2023-04-18T09:47:48.404Z,513.00
2023-04-18T09:48:47.864Z,508.00
2023-04-18T09:49:47.866Z,506.00
2023-04-18T09:50:47.894Z,512.00
2023-04-18T09:51:48.324Z,504.00
2023-04-18T09:52:47.859Z,500.00
2023-04-18T09:53:48.075Z,497.00
2023-04-18T09:54:48.318Z,505.00
2023-04-18T09:55:48.314Z,501.00
2023-04-18T09:56:47.849Z,509.00
2023-04-18T09:57:47.903Z,545.00
2023-04-18T09:58:47.909Z,556.00
2023-04-18T09:59:47.953Z,570.00
2023-04-18T10:00:48.317Z,558.00
2023-04-18T10:01:48.131Z,526.00
2023-04-18T10:02:48.464Z,525.00
2023-04-18T10:03:48.189Z,546.00
2023-04-18T10:04:48.281Z,546.00
2023-04-18T10:05:48.356Z,561.00
2023-04-18T10:06:48.250Z,561.00
2023-04-18T10:07:48.476Z,549.00
2023-04-18T10:08:48.344Z,551.00
2023-04-18T10:09:48.412Z,500.00
2023-04-18T10:10:48.859Z,500.00
2023-04-18T10:11:48.497Z,507.00
2023-04-18T10:12:48.552Z,519.00
2023-04-18T10:13:48.640Z,539.00
2023-04-18T10:14:48.819Z,530.00
2023-04-18T10:15:51.975Z,526.00
2023-04-18T10:16:50.622Z,520.00
2023-04-18T10:18:02.856Z,526.00
2023-04-18T10:18:48.710Z,526.00
2023-04-18T10:19:48.846Z,529.00
2023-04-18T10:20:48.718Z,536.00
2023-04-18T10:21:48.719Z,535.00
2023-04-18T10:22:48.870Z,520.00
2023-04-18T10:23:48.732Z,524.00
2023-04-18T10:24:48.853Z,521.00
2023-04-18T10:25:48.713Z,530.00
2023-04-18T10:26:48.878Z,528.00
2023-04-18T10:27:48.747Z,526.00
2023-04-18T10:28:48.830Z,511.00
2023-04-18T10:29:48.653Z,518.00
2023-04-18T10:30:48.650Z,532.00
2023-04-18T10:31:48.842Z,535.00
2023-04-18T10:32:48.648Z,523.00
2023-04-18T10:34:00.713Z,500.00
2023-04-18T10:34:48.625Z,461.00
2023-04-18T10:35:48.645Z,412.00
2023-04-18T10:36:48.907Z,400.00
2023-04-18T10:37:48.662Z,400.00
2023-04-18T10:38:48.616Z,400.00
2023-04-18T10:39:48.607Z,400.00
2023-04-18T10:40:48.752Z,401.00
2023-04-18T10:41:50.495Z,413.00
2023-04-18T10:42:48.837Z,403.00
2023-04-18T10:43:48.609Z,413.00
2023-04-18T10:44:48.613Z,416.00
2023-04-18T10:45:49.217Z,413.00
2023-04-18T10:46:48.706Z,428.00
2023-04-18T10:47:48.754Z,425.00
2023-04-18T10:48:48.622Z,482.00
2023-04-18T10:49:48.710Z,498.00
2023-04-18T10:50:48.635Z,504.00
2023-04-18T10:51:49.438Z,521.00
2023-04-18T10:52:48.636Z,534.00
2023-04-18T10:53:48.642Z,522.00
2023-04-18T10:54:48.975Z,504.00
2023-04-18T10:55:48.645Z,502.00
2023-04-18T10:56:48.968Z,501.00
2023-04-18T10:57:48.838Z,508.00
2023-04-18T10:58:48.654Z,523.00
2023-04-18T10:59:48.656Z,527.00
2023-04-18T11:00:48.683Z,529.00
2023-04-18T11:01:48.837Z,512.00
2023-04-18T11:02:48.825Z,501.00
2023-04-18T11:03:48.866Z,534.00
2023-04-18T11:04:48.687Z,562.00
2023-04-18T11:05:48.778Z,542.00
2023-04-18T11:06:48.843Z,544.00
2023-04-18T11:07:48.724Z,543.00
2023-04-18T11:08:48.699Z,554.00
2023-04-18T11:09:48.842Z,551.00
2023-04-18T11:10:48.715Z,552.00
2023-04-18T11:11:48.846Z,563.00
2023-04-18T11:12:48.730Z,581.00
2023-04-18T11:13:48.724Z,601.00
2023-04-18T11:14:48.765Z,587.00
2023-04-18T11:15:48.719Z,620.00
2023-04-18T11:16:48.907Z,593.00
2023-04-18T11:17:48.745Z,619.00
2023-04-18T11:18:48.730Z,598.00
2023-04-18T11:19:48.880Z,613.00
2023-04-18T11:20:48.723Z,631.00
2023-04-18T11:21:48.900Z,627.00
2023-04-18T11:22:48.736Z,621.00
2023-04-18T11:23:48.812Z,637.00
2023-04-18T11:24:48.785Z,653.00
2023-04-18T11:25:48.819Z,638.00
2023-04-18T11:26:49.353Z,652.00
2023-04-18T11:27:48.901Z,656.00
2023-04-18T11:28:48.934Z,658.00
2023-04-18T11:29:48.989Z,642.00
2023-04-18T11:30:49.044Z,656.00
2023-04-18T11:31:49.422Z,705.00
2023-04-18T11:32:49.162Z,699.00
2023-04-18T11:33:49.354Z,658.00
2023-04-18T11:34:49.189Z,680.00
2023-04-18T11:35:49.227Z,698.00
2023-04-18T11:36:49.280Z,667.00
2023-04-18T11:37:49.353Z,694.00
2023-04-18T11:38:49.355Z,676.00
2023-04-18T11:39:49.373Z,658.00
2023-04-18T11:40:50.462Z,644.00
2023-04-18T11:41:49.860Z,610.00
2023-04-18T11:42:49.491Z,594.00
2023-04-18T11:43:49.856Z,598.00
2023-04-18T11:44:49.576Z,592.00
2023-04-18T11:45:49.677Z,587.00
2023-04-18T11:46:49.669Z,582.00
2023-04-18T11:47:49.918Z,589.00
2023-04-18T11:48:49.747Z,583.00
2023-04-18T11:49:49.791Z,586.00
2023-04-18T11:50:49.832Z,572.00
2023-04-18T11:51:49.917Z,588.00
2023-04-18T11:52:49.941Z,612.00
2023-04-18T11:53:50.009Z,567.00
2023-04-18T11:54:50.017Z,560.00
2023-04-18T11:55:50.071Z,550.00
2023-04-18T11:56:50.385Z,568.00
2023-04-18T11:57:50.161Z,629.00
2023-04-18T11:58:50.214Z,636.00
2023-04-18T11:59:50.378Z,708.00
2023-04-18T12:00:50.364Z,870.00
2023-04-18T12:01:50.974Z,925.00
2023-04-18T12:02:50.545Z,1017.00
2023-04-18T12:03:50.633Z,1058.00
2023-04-18T12:04:50.801Z,1101.00
2023-04-18T12:05:50.787Z,1211.00
2023-04-18T12:06:50.954Z,1370.00
2023-04-18T12:07:50.716Z,1338.00
2023-04-18T12:08:51.904Z,1410.00
2023-04-18T12:09:50.839Z,1472.00
2023-04-18T12:10:50.801Z,1480.00
2023-04-18T12:11:50.930Z,1496.00
2023-04-18T12:12:50.842Z,1559.00
2023-04-18T12:13:50.963Z,1564.00
2023-04-18T12:14:50.877Z,1554.00
2023-04-18T12:15:50.926Z,1550.00
2023-04-18T12:16:50.901Z,1577.00
2023-04-18T12:17:51.448Z,1553.00
2023-04-18T12:18:51.416Z,1564.00
2023-04-18T12:19:50.982Z,1559.00
2023-04-18T12:20:50.918Z,1548.00
2023-04-18T12:21:50.917Z,1555.00
2023-04-18T12:22:51.402Z,1510.00
2023-04-18T12:23:51.386Z,1537.00
2023-04-18T12:24:51.050Z,1517.00
2023-04-18T12:25:52.896Z,1503.00
2023-04-18T12:26:51.404Z,1497.00
2023-04-18T12:27:51.156Z,1501.00
2023-04-18T12:28:51.269Z,1518.00
2023-04-18T12:29:51.206Z,1500.00
2023-04-18T12:30:51.202Z,1480.00